sensor_id;sensor_type;location;lat;lon;timestamp;P1;durP1;ratioP1;P2;durP2;ratioP2
35990;SDS011;22064;42.672;23.282;2022-12-18T00:02:11;17.48;;;9.10;;
35990;SDS011;22064;42.672;23.282;2022-12-18T00:04:37;17.67;;;8.55;;
35990;SDS011;22064;42.672;23.282;2022-12-18T00:07:03;17.05;;;8.43;;
35990;SDS011;22064;42.672;23.282;2022-12-18T00:09:28;16.38;;;8.15;;
35990;SDS011;22064;42.672;23.282;2022-12-18T00:11:54;17.38;;;8.18;;
35990;SDS011;22064;42.672;23.282;2022-12-18T00:14:20;18.33;;;8.35;;
35990;SDS011;22064;42.672;23.282;2022-12-18T00:16:45;17.50;;;8.32;;
35990;SDS011;22064;42.672;23.282;2022-12-18T00:19:12;19.10;;;9.15;;
35990;SDS011;22064;42.672;23.282;2022-12-18T00:21:39;21.13;;;9.02;;
35990;SDS011;22064;42.672;23.282;2022-12-18T00:24:04;16.60;;;8.13;;
35990;SDS011;22064;42.672;23.282;2022-12-18T00:26:31;18.23;;;8.68;;
35990;SDS011;22064;42.672;23.282;2022-12-18T00:29:04;18.15;;;8.32;;
35990;SDS011;22064;42.672;23.282;2022-12-18T00:31:32;18.92;;;9.27;;
35990;SDS011;22064;42.672;23.282;2022-12-18T00:33:59;21.10;;;9.48;;
35990;SDS011;22064;42.672;23.282;2022-12-18T00:36:27;17.98;;;8.80;;
35990;SDS011;22064;42.672;23.282;2022-12-18T00:38:54;18.55;;;9.25;;
35990;SDS011;22064;42.672;23.282;2022-12-18T00:41:21;18.60;;;9.23;;
35990;SDS011;22064;42.672;23.282;2022-12-18T00:44:07;22.02;;;10.50;;
35990;SDS011;22064;42.672;23.282;2022-12-18T00:46:34;20.13;;;9.95;;
35990;SDS011;22064;42.672;23.282;2022-12-18T00:49:00;22.08;;;10.60;;
35990;SDS011;22064;42.672;23.282;2022-12-18T00:51:26;21.92;;;10.43;;
35990;SDS011;22064;42.672;23.282;2022-12-18T00:53:52;20.85;;;10.18;;
35990;SDS011;22064;42.672;23.282;2022-12-18T00:56:18;20.15;;;9.98;;
35990;SDS011;22064;42.672;23.282;2022-12-18T00:58:43;23.08;;;11.57;;
35990;SDS011;22064;42.672;23.282;2022-12-18T01:01:09;22.92;;;10.40;;
35990;SDS011;22064;42.672;23.282;2022-12-18T01:03:34;19.65;;;9.88;;
35990;SDS011;22064;42.672;23.282;2022-12-18T01:06:05;23.73;;;11.70;;
35990;SDS011;22064;42.672;23.282;2022-12-18T01:08:34;21.40;;;10.50;;
35990;SDS011;22064;42.672;23.282;2022-12-18T01:11:00;20.52;;;10.75;;
35990;SDS011;22064;42.672;23.282;2022-12-18T01:13:32;21.77;;;9.88;;
35990;SDS011;22064;42.672;23.282;2022-12-18T01:15:57;23.10;;;10.68;;
35990;SDS011;22064;42.672;23.282;2022-12-18T01:18:23;20.77;;;9.85;;
35990;SDS011;22064;42.672;23.282;2022-12-18T01:20:49;18.88;;;9.23;;
35990;SDS011;22064;42.672;23.282;2022-12-18T01:23:15;24.83;;;11.23;;
35990;SDS011;22064;42.672;23.282;2022-12-18T01:25:40;21.52;;;10.60;;
35990;SDS011;22064;42.672;23.282;2022-12-18T01:28:08;22.75;;;11.13;;
35990;SDS011;22064;42.672;23.282;2022-12-18T01:30:34;21.73;;;10.95;;
35990;SDS011;22064;42.672;23.282;2022-12-18T01:32:59;23.20;;;10.57;;
35990;SDS011;22064;42.672;23.282;2022-12-18T01:35:25;20.65;;;10.05;;
35990;SDS011;22064;42.672;23.282;2022-12-18T01:37:55;21.55;;;10.20;;
35990;SDS011;22064;42.672;23.282;2022-12-18T01:40:20;19.60;;;9.33;;
35990;SDS011;22064;42.672;23.282;2022-12-18T01:42:52;20.00;;;9.73;;
35990;SDS011;22064;42.672;23.282;2022-12-18T01:47:45;22.60;;;10.77;;
35990;SDS011;22064;42.672;23.282;2022-12-18T01:50:33;23.27;;;10.32;;
35990;SDS011;22064;42.672;23.282;2022-12-18T01:53:11;23.60;;;11.75;;
35990;SDS011;22064;42.672;23.282;2022-12-18T01:55:47;21.50;;;10.75;;
35990;SDS011;22064;42.672;23.282;2022-12-18T01:58:15;18.40;;;10.00;;
35990;SDS011;22064;42.672;23.282;2022-12-18T02:00:42;22.50;;;10.73;;
35990;SDS011;22064;42.672;23.282;2022-12-18T02:03:07;21.15;;;10.20;;
35990;SDS011;22064;42.672;23.282;2022-12-18T02:22:21;20.98;;;9.65;;
35990;SDS011;22064;42.672;23.282;2022-12-18T02:27:41;20.60;;;9.82;;
35990;SDS011;22064;42.672;23.282;2022-12-18T02:30:11;21.52;;;10.70;;
35990;SDS011;22064;42.672;23.282;2022-12-18T02:32:38;21.15;;;10.40;;
35990;SDS011;22064;42.672;23.282;2022-12-18T02:35:08;19.08;;;9.65;;
35990;SDS011;22064;42.672;23.282;2022-12-18T02:37:41;21.73;;;9.75;;
35990;SDS011;22064;42.672;23.282;2022-12-18T02:40:09;22.70;;;10.35;;
35990;SDS011;22064;42.672;23.282;2022-12-18T02:42:37;19.13;;;9.63;;
35990;SDS011;22064;42.672;23.282;2022-12-18T02:45:05;22.95;;;9.48;;
35990;SDS011;22064;42.672;23.282;2022-12-18T02:47:36;16.58;;;8.00;;
35990;SDS011;22064;42.672;23.282;2022-12-18T03:01:30;19.98;;;9.23;;
35990;SDS011;22064;42.672;23.282;2022-12-18T03:04:04;19.33;;;8.95;;
35990;SDS011;22064;42.672;23.282;2022-12-18T03:06:41;20.50;;;9.82;;
35990;SDS011;22064;42.672;23.282;2022-12-18T03:09:14;20.23;;;9.40;;
35990;SDS011;22064;42.672;23.282;2022-12-18T03:11:48;19.60;;;9.35;;
35990;SDS011;22064;42.672;23.282;2022-12-18T03:14:39;19.73;;;8.93;;
35990;SDS011;22064;42.672;23.282;2022-12-18T03:17:09;20.25;;;9.10;;
35990;SDS011;22064;42.672;23.282;2022-12-18T03:19:38;18.80;;;9.20;;
35990;SDS011;22064;42.672;23.282;2022-12-18T03:22:07;20.70;;;9.85;;
35990;SDS011;22064;42.672;23.282;2022-12-18T03:24:41;21.42;;;9.88;;
35990;SDS011;22064;42.672;23.282;2022-12-18T03:27:09;20.20;;;9.25;;
35990;SDS011;22064;42.672;23.282;2022-12-18T03:29:38;20.02;;;9.82;;
35990;SDS011;22064;42.672;23.282;2022-12-18T03:32:10;20.33;;;9.50;;
35990;SDS011;22064;42.672;23.282;2022-12-18T03:34:41;19.35;;;8.93;;
35990;SDS011;22064;42.672;23.282;2022-12-18T03:37:13;20.15;;;9.82;;
35990;SDS011;22064;42.672;23.282;2022-12-18T03:39:40;18.27;;;8.70;;
35990;SDS011;22064;42.672;23.282;2022-12-18T03:44:39;18.08;;;7.95;;
35990;SDS011;22064;42.672;23.282;2022-12-18T03:47:21;15.60;;;7.85;;
35990;SDS011;22064;42.672;23.282;2022-12-18T03:49:59;14.75;;;7.13;;
35990;SDS011;22064;42.672;23.282;2022-12-18T03:52:45;16.35;;;7.63;;
35990;SDS011;22064;42.672;23.282;2022-12-18T03:55:21;17.33;;;7.78;;
35990;SDS011;22064;42.672;23.282;2022-12-18T03:57:56;17.10;;;8.05;;
35990;SDS011;22064;42.672;23.282;2022-12-18T04:00:26;16.30;;;7.30;;
35990;SDS011;22064;42.672;23.282;2022-12-18T04:03:02;16.27;;;7.40;;
35990;SDS011;22064;42.672;23.282;2022-12-18T04:05:37;15.57;;;7.53;;
35990;SDS011;22064;42.672;23.282;2022-12-18T04:08:04;16.73;;;7.22;;
35990;SDS011;22064;42.672;23.282;2022-12-18T04:10:34;15.32;;;7.18;;
35990;SDS011;22064;42.672;23.282;2022-12-18T04:13:01;16.50;;;7.07;;
35990;SDS011;22064;42.672;23.282;2022-12-18T04:15:27;15.88;;;7.40;;
35990;SDS011;22064;42.672;23.282;2022-12-18T04:17:54;16.77;;;7.28;;
35990;SDS011;22064;42.672;23.282;2022-12-18T04:20:22;17.20;;;7.70;;
35990;SDS011;22064;42.672;23.282;2022-12-18T04:22:48;18.90;;;9.02;;
35990;SDS011;22064;42.672;23.282;2022-12-18T04:25:13;18.23;;;8.30;;
35990;SDS011;22064;42.672;23.282;2022-12-18T04:27:50;17.42;;;7.72;;
35990;SDS011;22064;42.672;23.282;2022-12-18T04:30:16;17.92;;;8.32;;
35990;SDS011;22064;42.672;23.282;2022-12-18T04:32:42;19.85;;;9.40;;
35990;SDS011;22064;42.672;23.282;2022-12-18T04:35:08;17.80;;;8.57;;
35990;SDS011;22064;42.672;23.282;2022-12-18T04:37:35;20.08;;;8.85;;
35990;SDS011;22064;42.672;23.282;2022-12-18T04:40:01;21.08;;;8.55;;
35990;SDS011;22064;42.672;23.282;2022-12-18T04:42:35;17.15;;;7.80;;
35990;SDS011;22064;42.672;23.282;2022-12-18T04:45:01;17.73;;;8.40;;
35990;SDS011;22064;42.672;23.282;2022-12-18T04:47:26;17.48;;;7.93;;
35990;SDS011;22064;42.672;23.282;2022-12-18T04:49:52;21.48;;;9.27;;
35990;SDS011;22064;42.672;23.282;2022-12-18T04:52:17;23.05;;;10.00;;
35990;SDS011;22064;42.672;23.282;2022-12-18T04:54:43;20.45;;;9.52;;
35990;SDS011;22064;42.672;23.282;2022-12-18T04:57:08;21.42;;;10.32;;
35990;SDS011;22064;42.672;23.282;2022-12-18T04:59:34;24.15;;;9.95;;
35990;SDS011;22064;42.672;23.282;2022-12-18T05:01:59;21.65;;;9.25;;
35990;SDS011;22064;42.672;23.282;2022-12-18T05:04:24;22.17;;;10.00;;
35990;SDS011;22064;42.672;23.282;2022-12-18T05:06:50;21.13;;;9.75;;
35990;SDS011;22064;42.672;23.282;2022-12-18T05:09:15;21.00;;;10.43;;
35990;SDS011;22064;42.672;23.282;2022-12-18T05:11:41;22.70;;;10.27;;
35990;SDS011;22064;42.672;23.282;2022-12-18T05:14:06;22.90;;;11.43;;
35990;SDS011;22064;42.672;23.282;2022-12-18T05:16:32;24.88;;;10.60;;
35990;SDS011;22064;42.672;23.282;2022-12-18T05:18:57;27.02;;;11.18;;
35990;SDS011;22064;42.672;23.282;2022-12-18T05:21:23;25.88;;;11.80;;
35990;SDS011;22064;42.672;23.282;2022-12-18T05:23:48;25.48;;;12.02;;
35990;SDS011;22064;42.672;23.282;2022-12-18T05:26:15;23.95;;;11.70;;
35990;SDS011;22064;42.672;23.282;2022-12-18T05:28:42;23.88;;;11.60;;
35990;SDS011;22064;42.672;23.282;2022-12-18T05:31:09;26.13;;;11.95;;
35990;SDS011;22064;42.672;23.282;2022-12-18T05:33:34;24.98;;;11.40;;
35990;SDS011;22064;42.672;23.282;2022-12-18T05:36:01;22.80;;;10.55;;
35990;SDS011;22064;42.672;23.282;2022-12-18T05:38:28;27.83;;;13.57;;
35990;SDS011;22064;42.672;23.282;2022-12-18T05:40:55;23.23;;;11.20;;
35990;SDS011;22064;42.672;23.282;2022-12-18T05:43:21;23.98;;;9.63;;
35990;SDS011;22064;42.672;23.282;2022-12-18T05:45:48;25.40;;;11.35;;
35990;SDS011;22064;42.672;23.282;2022-12-18T05:48:14;26.05;;;11.10;;
35990;SDS011;22064;42.672;23.282;2022-12-18T05:50:41;26.58;;;11.27;;
35990;SDS011;22064;42.672;23.282;2022-12-18T05:53:09;24.30;;;10.73;;
35990;SDS011;22064;42.672;23.282;2022-12-18T05:55:34;26.35;;;12.00;;
35990;SDS011;22064;42.672;23.282;2022-12-18T05:58:01;27.58;;;13.00;;
35990;SDS011;22064;42.672;23.282;2022-12-18T06:00:28;27.90;;;11.43;;
35990;SDS011;22064;42.672;23.282;2022-12-18T06:02:54;28.88;;;12.68;;
35990;SDS011;22064;42.672;23.282;2022-12-18T06:05:20;32.03;;;14.48;;
35990;SDS011;22064;42.672;23.282;2022-12-18T06:07:45;29.15;;;12.93;;
35990;SDS011;22064;42.672;23.282;2022-12-18T06:10:11;27.88;;;12.63;;
35990;SDS011;22064;42.672;23.282;2022-12-18T06:12:36;26.52;;;12.13;;
35990;SDS011;22064;42.672;23.282;2022-12-18T06:15:02;28.80;;;13.38;;
35990;SDS011;22064;42.672;23.282;2022-12-18T06:17:29;26.30;;;11.82;;
35990;SDS011;22064;42.672;23.282;2022-12-18T06:19:55;26.40;;;12.38;;
35990;SDS011;22064;42.672;23.282;2022-12-18T06:22:20;28.42;;;12.63;;
35990;SDS011;22064;42.672;23.282;2022-12-18T06:24:46;29.10;;;12.90;;
35990;SDS011;22064;42.672;23.282;2022-12-18T06:27:11;28.60;;;11.75;;
35990;SDS011;22064;42.672;23.282;2022-12-18T06:29:36;26.90;;;13.35;;
35990;SDS011;22064;42.672;23.282;2022-12-18T06:32:02;26.95;;;12.25;;
35990;SDS011;22064;42.672;23.282;2022-12-18T06:34:27;28.10;;;12.73;;
35990;SDS011;22064;42.672;23.282;2022-12-18T06:36:53;26.48;;;13.20;;
35990;SDS011;22064;42.672;23.282;2022-12-18T06:39:19;26.27;;;11.88;;
35990;SDS011;22064;42.672;23.282;2022-12-18T06:41:44;26.90;;;12.23;;
35990;SDS011;22064;42.672;23.282;2022-12-18T06:44:09;27.85;;;12.85;;
35990;SDS011;22064;42.672;23.282;2022-12-18T06:46:35;26.73;;;11.63;;
35990;SDS011;22064;42.672;23.282;2022-12-18T06:49:00;29.40;;;13.27;;
35990;SDS011;22064;42.672;23.282;2022-12-18T06:51:26;29.15;;;12.90;;
35990;SDS011;22064;42.672;23.282;2022-12-18T06:53:51;26.98;;;12.55;;
35990;SDS011;22064;42.672;23.282;2022-12-18T06:56:17;27.60;;;12.85;;
35990;SDS011;22064;42.672;23.282;2022-12-18T06:58:42;26.70;;;12.38;;
35990;SDS011;22064;42.672;23.282;2022-12-18T07:01:09;27.35;;;12.50;;
35990;SDS011;22064;42.672;23.282;2022-12-18T07:03:36;27.80;;;12.63;;
35990;SDS011;22064;42.672;23.282;2022-12-18T07:06:02;26.23;;;12.32;;
35990;SDS011;22064;42.672;23.282;2022-12-18T07:08:28;26.40;;;11.90;;
35990;SDS011;22064;42.672;23.282;2022-12-18T07:10:55;27.48;;;12.07;;
35990;SDS011;22064;42.672;23.282;2022-12-18T07:13:20;24.95;;;11.93;;
35990;SDS011;22064;42.672;23.282;2022-12-18T07:15:46;25.70;;;11.63;;
35990;SDS011;22064;42.672;23.282;2022-12-18T07:18:11;25.08;;;11.30;;
35990;SDS011;22064;42.672;23.282;2022-12-18T07:20:37;29.63;;;12.32;;
35990;SDS011;22064;42.672;23.282;2022-12-18T07:23:03;27.58;;;12.68;;
35990;SDS011;22064;42.672;23.282;2022-12-18T07:25:30;25.38;;;11.55;;
35990;SDS011;22064;42.672;23.282;2022-12-18T07:27:59;27.67;;;12.15;;
35990;SDS011;22064;42.672;23.282;2022-12-18T07:30:25;28.30;;;12.75;;
35990;SDS011;22064;42.672;23.282;2022-12-18T07:32:50;27.80;;;12.25;;
35990;SDS011;22064;42.672;23.282;2022-12-18T07:35:16;27.35;;;11.35;;
35990;SDS011;22064;42.672;23.282;2022-12-18T07:37:41;27.75;;;12.05;;
35990;SDS011;22064;42.672;23.282;2022-12-18T07:40:07;27.95;;;12.27;;
35990;SDS011;22064;42.672;23.282;2022-12-18T07:42:33;28.35;;;12.27;;
35990;SDS011;22064;42.672;23.282;2022-12-18T07:45:00;32.55;;;13.45;;
35990;SDS011;22064;42.672;23.282;2022-12-18T07:47:26;29.70;;;12.52;;
35990;SDS011;22064;42.672;23.282;2022-12-18T07:49:54;30.67;;;14.30;;
35990;SDS011;22064;42.672;23.282;2022-12-18T07:52:20;30.90;;;14.77;;
35990;SDS011;22064;42.672;23.282;2022-12-18T07:54:46;33.13;;;14.38;;
35990;SDS011;22064;42.672;23.282;2022-12-18T07:57:14;30.15;;;13.80;;
35990;SDS011;22064;42.672;23.282;2022-12-18T07:59:39;31.13;;;13.95;;
35990;SDS011;22064;42.672;23.282;2022-12-18T08:02:04;35.72;;;15.73;;
35990;SDS011;22064;42.672;23.282;2022-12-18T08:04:30;31.35;;;14.73;;
35990;SDS011;22064;42.672;23.282;2022-12-18T08:06:56;32.97;;;15.57;;
35990;SDS011;22064;42.672;23.282;2022-12-18T08:09:21;33.67;;;15.35;;
35990;SDS011;22064;42.672;23.282;2022-12-18T08:11:47;33.92;;;16.02;;
35990;SDS011;22064;42.672;23.282;2022-12-18T08:14:12;32.65;;;13.98;;
35990;SDS011;22064;42.672;23.282;2022-12-18T08:16:38;32.65;;;15.90;;
35990;SDS011;22064;42.672;23.282;2022-12-18T08:19:04;33.35;;;15.68;;
35990;SDS011;22064;42.672;23.282;2022-12-18T08:21:30;34.53;;;15.05;;
35990;SDS011;22064;42.672;23.282;2022-12-18T08:23:57;34.80;;;15.27;;
35990;SDS011;22064;42.672;23.282;2022-12-18T08:26:25;37.42;;;17.73;;
35990;SDS011;22064;42.672;23.282;2022-12-18T08:28:53;37.50;;;16.27;;
35990;SDS011;22064;42.672;23.282;2022-12-18T08:31:20;34.35;;;16.08;;
35990;SDS011;22064;42.672;23.282;2022-12-18T08:33:47;34.58;;;15.20;;
35990;SDS011;22064;42.672;23.282;2022-12-18T08:36:14;40.28;;;16.70;;
35990;SDS011;22064;42.672;23.282;2022-12-18T08:38:39;35.78;;;16.17;;
35990;SDS011;22064;42.672;23.282;2022-12-18T08:41:06;37.80;;;16.67;;
35990;SDS011;22064;42.672;23.282;2022-12-18T08:43:34;30.77;;;13.60;;
35990;SDS011;22064;42.672;23.282;2022-12-18T08:46:18;35.33;;;16.15;;
35990;SDS011;22064;42.672;23.282;2022-12-18T08:48:45;37.88;;;16.17;;
35990;SDS011;22064;42.672;23.282;2022-12-18T08:51:11;34.45;;;15.15;;
35990;SDS011;22064;42.672;23.282;2022-12-18T08:53:37;36.95;;;16.52;;
35990;SDS011;22064;42.672;23.282;2022-12-18T08:56:03;37.30;;;16.50;;
35990;SDS011;22064;42.672;23.282;2022-12-18T08:58:29;38.17;;;16.70;;
35990;SDS011;22064;42.672;23.282;2022-12-18T09:01:02;41.70;;;17.98;;
35990;SDS011;22064;42.672;23.282;2022-12-18T09:03:29;36.10;;;16.60;;
35990;SDS011;22064;42.672;23.282;2022-12-18T09:05:55;36.65;;;16.70;;
35990;SDS011;22064;42.672;23.282;2022-12-18T09:08:20;35.13;;;14.73;;
35990;SDS011;22064;42.672;23.282;2022-12-18T09:10:47;36.75;;;16.77;;
35990;SDS011;22064;42.672;23.282;2022-12-18T09:13:14;39.17;;;15.65;;
35990;SDS011;22064;42.672;23.282;2022-12-18T09:15:44;35.90;;;16.98;;
35990;SDS011;22064;42.672;23.282;2022-12-18T09:18:12;33.88;;;15.45;;
35990;SDS011;22064;42.672;23.282;2022-12-18T09:20:39;40.03;;;18.17;;
35990;SDS011;22064;42.672;23.282;2022-12-18T09:23:05;34.75;;;17.25;;
35990;SDS011;22064;42.672;23.282;2022-12-18T09:25:31;36.33;;;18.45;;
35990;SDS011;22064;42.672;23.282;2022-12-18T09:27:59;36.67;;;15.73;;
35990;SDS011;22064;42.672;23.282;2022-12-18T09:30:25;32.88;;;14.48;;
35990;SDS011;22064;42.672;23.282;2022-12-18T09:32:51;36.30;;;16.40;;
35990;SDS011;22064;42.672;23.282;2022-12-18T09:35:18;34.22;;;15.55;;
35990;SDS011;22064;42.672;23.282;2022-12-18T09:37:43;35.70;;;15.73;;
35990;SDS011;22064;42.672;23.282;2022-12-18T09:40:19;34.25;;;15.85;;
35990;SDS011;22064;42.672;23.282;2022-12-18T09:42:49;31.90;;;14.45;;
35990;SDS011;22064;42.672;23.282;2022-12-18T09:45:19;38.25;;;16.15;;
35990;SDS011;22064;42.672;23.282;2022-12-18T09:47:45;37.33;;;16.27;;
35990;SDS011;22064;42.672;23.282;2022-12-18T09:52:58;34.38;;;16.13;;
35990;SDS011;22064;42.672;23.282;2022-12-18T09:58:06;35.83;;;14.98;;
35990;SDS011;22064;42.672;23.282;2022-12-18T10:00:35;32.83;;;14.65;;
35990;SDS011;22064;42.672;23.282;2022-12-18T10:03:03;34.78;;;14.02;;
35990;SDS011;22064;42.672;23.282;2022-12-18T10:10:35;31.08;;;14.00;;
35990;SDS011;22064;42.672;23.282;2022-12-18T10:18:44;30.90;;;13.77;;
35990;SDS011;22064;42.672;23.282;2022-12-18T10:21:30;31.15;;;13.63;;
35990;SDS011;22064;42.672;23.282;2022-12-18T10:26:46;31.02;;;13.52;;
35990;SDS011;22064;42.672;23.282;2022-12-18T10:29:13;28.35;;;12.75;;
35990;SDS011;22064;42.672;23.282;2022-12-18T10:31:40;31.40;;;13.73;;
35990;SDS011;22064;42.672;23.282;2022-12-18T10:34:12;28.73;;;12.32;;
35990;SDS011;22064;42.672;23.282;2022-12-18T10:36:40;28.17;;;13.02;;
35990;SDS011;22064;42.672;23.282;2022-12-18T10:39:16;29.20;;;12.23;;
35990;SDS011;22064;42.672;23.282;2022-12-18T10:41:47;30.90;;;13.48;;
35990;SDS011;22064;42.672;23.282;2022-12-18T10:44:20;31.67;;;13.30;;
35990;SDS011;22064;42.672;23.282;2022-12-18T10:46:51;29.92;;;13.95;;
35990;SDS011;22064;42.672;23.282;2022-12-18T10:49:25;30.23;;;12.90;;
35990;SDS011;22064;42.672;23.282;2022-12-18T10:54:51;29.35;;;12.95;;
35990;SDS011;22064;42.672;23.282;2022-12-18T11:00:45;27.20;;;12.40;;
35990;SDS011;22064;42.672;23.282;2022-12-18T11:02:53;29.27;;;12.30;;
35990;SDS011;22064;42.672;23.282;2022-12-18T11:05:24;25.63;;;11.25;;
35990;SDS011;22064;42.672;23.282;2022-12-18T11:07:50;27.73;;;11.77;;
35990;SDS011;22064;42.672;23.282;2022-12-18T11:10:19;25.30;;;10.80;;
35990;SDS011;22064;42.672;23.282;2022-12-18T11:12:46;27.80;;;12.15;;
35990;SDS011;22064;42.672;23.282;2022-12-18T11:15:15;28.10;;;11.50;;
35990;SDS011;22064;42.672;23.282;2022-12-18T11:17:45;27.15;;;12.10;;
35990;SDS011;22064;42.672;23.282;2022-12-18T11:23:05;24.90;;;10.57;;
35990;SDS011;22064;42.672;23.282;2022-12-18T11:25:38;27.50;;;11.48;;
35990;SDS011;22064;42.672;23.282;2022-12-18T11:28:27;27.33;;;12.43;;
35990;SDS011;22064;42.672;23.282;2022-12-18T11:33:41;25.45;;;10.93;;
35990;SDS011;22064;42.672;23.282;2022-12-18T11:36:21;27.90;;;11.80;;
35990;SDS011;22064;42.672;23.282;2022-12-18T11:38:47;25.83;;;10.43;;
35990;SDS011;22064;42.672;23.282;2022-12-18T11:43:52;24.73;;;10.60;;
35990;SDS011;22064;42.672;23.282;2022-12-18T11:46:34;26.65;;;11.75;;
35990;SDS011;22064;42.672;23.282;2022-12-18T11:51:51;26.20;;;10.80;;
35990;SDS011;22064;42.672;23.282;2022-12-18T11:54:22;28.27;;;11.40;;
35990;SDS011;22064;42.672;23.282;2022-12-18T12:02:17;27.20;;;11.82;;
35990;SDS011;22064;42.672;23.282;2022-12-18T12:07:20;29.20;;;12.60;;
35990;SDS011;22064;42.672;23.282;2022-12-18T12:24:22;30.75;;;12.43;;
35990;SDS011;22064;42.672;23.282;2022-12-18T12:32:21;27.60;;;12.68;;
35990;SDS011;22064;42.672;23.282;2022-12-18T12:40:26;31.42;;;13.98;;
35990;SDS011;22064;42.672;23.282;2022-12-18T12:43:01;28.95;;;12.52;;
35990;SDS011;22064;42.672;23.282;2022-12-18T12:48:34;30.15;;;14.18;;
35990;SDS011;22064;42.672;23.282;2022-12-18T12:51:10;29.15;;;12.95;;
35990;SDS011;22064;42.672;23.282;2022-12-18T12:53:42;28.88;;;13.88;;
35990;SDS011;22064;42.672;23.282;2022-12-18T12:56:08;28.63;;;13.52;;
35990;SDS011;22064;42.672;23.282;2022-12-18T13:01:20;28.92;;;12.15;;
35990;SDS011;22064;42.672;23.282;2022-12-18T13:03:58;29.42;;;13.50;;
35990;SDS011;22064;42.672;23.282;2022-12-18T13:08:58;28.58;;;12.50;;
35990;SDS011;22064;42.672;23.282;2022-12-18T13:11:47;31.05;;;13.43;;
35990;SDS011;22064;42.672;23.282;2022-12-18T13:19:48;32.80;;;13.18;;
35990;SDS011;22064;42.672;23.282;2022-12-18T13:24:46;28.67;;;13.05;;
35990;SDS011;22064;42.672;23.282;2022-12-18T13:40:58;29.90;;;13.10;;
35990;SDS011;22064;42.672;23.282;2022-12-18T13:43:33;28.70;;;13.00;;
35990;SDS011;22064;42.672;23.282;2022-12-18T13:48:29;29.45;;;14.02;;
35990;SDS011;22064;42.672;23.282;2022-12-18T13:51:06;29.60;;;12.35;;
35990;SDS011;22064;42.672;23.282;2022-12-18T13:56:15;31.67;;;13.50;;
35990;SDS011;22064;42.672;23.282;2022-12-18T14:02:16;28.58;;;13.07;;
35990;SDS011;22064;42.672;23.282;2022-12-18T14:04:46;31.50;;;13.30;;
35990;SDS011;22064;42.672;23.282;2022-12-18T14:07:14;27.80;;;12.02;;
35990;SDS011;22064;42.672;23.282;2022-12-18T14:09:42;25.95;;;9.95;;
35990;SDS011;22064;42.672;23.282;2022-12-18T14:12:32;27.77;;;11.93;;
35990;SDS011;22064;42.672;23.282;2022-12-18T14:20:29;27.63;;;11.13;;
35990;SDS011;22064;42.672;23.282;2022-12-18T14:22:56;26.38;;;11.23;;
35990;SDS011;22064;42.672;23.282;2022-12-18T14:25:26;27.88;;;11.18;;
35990;SDS011;22064;42.672;23.282;2022-12-18T14:28:02;28.45;;;11.80;;
35990;SDS011;22064;42.672;23.282;2022-12-18T14:35:56;26.90;;;10.43;;
35990;SDS011;22064;42.672;23.282;2022-12-18T14:41:04;27.90;;;11.93;;
35990;SDS011;22064;42.672;23.282;2022-12-18T14:43:35;26.58;;;11.80;;
35990;SDS011;22064;42.672;23.282;2022-12-18T14:46:03;25.63;;;10.75;;
35990;SDS011;22064;42.672;23.282;2022-12-18T14:51:06;29.90;;;12.25;;
35990;SDS011;22064;42.672;23.282;2022-12-18T14:53:42;27.80;;;12.27;;
35990;SDS011;22064;42.672;23.282;2022-12-18T14:58:50;31.95;;;12.98;;
35990;SDS011;22064;42.672;23.282;2022-12-18T15:01:24;33.22;;;13.35;;
35990;SDS011;22064;42.672;23.282;2022-12-18T15:03:53;28.85;;;13.27;;
35990;SDS011;22064;42.672;23.282;2022-12-18T15:08:51;30.00;;;11.75;;
35990;SDS011;22064;42.672;23.282;2022-12-18T15:14:00;27.58;;;11.63;;
35990;SDS011;22064;42.672;23.282;2022-12-18T15:16:49;26.00;;;11.02;;
35990;SDS011;22064;42.672;23.282;2022-12-18T15:19:20;27.80;;;12.15;;
35990;SDS011;22064;42.672;23.282;2022-12-18T15:21:47;26.05;;;10.90;;
35990;SDS011;22064;42.672;23.282;2022-12-18T15:24:20;25.77;;;11.27;;
35990;SDS011;22064;42.672;23.282;2022-12-18T15:26:49;25.63;;;10.77;;
35990;SDS011;22064;42.672;23.282;2022-12-18T15:29:20;25.45;;;9.27;;
35990;SDS011;22064;42.672;23.282;2022-12-18T15:32:20;24.38;;;10.10;;
35990;SDS011;22064;42.672;23.282;2022-12-18T15:34:44;23.80;;;11.20;;
35990;SDS011;22064;42.672;23.282;2022-12-18T15:37:09;25.30;;;11.18;;
35990;SDS011;22064;42.672;23.282;2022-12-18T15:39:35;25.90;;;10.38;;
35990;SDS011;22064;42.672;23.282;2022-12-18T15:42:01;26.05;;;10.98;;
35990;SDS011;22064;42.672;23.282;2022-12-18T15:44:45;24.65;;;10.73;;
35990;SDS011;22064;42.672;23.282;2022-12-18T15:47:12;27.92;;;11.52;;
35990;SDS011;22064;42.672;23.282;2022-12-18T15:49:38;25.63;;;12.07;;
35990;SDS011;22064;42.672;23.282;2022-12-18T15:52:04;27.42;;;11.75;;
35990;SDS011;22064;42.672;23.282;2022-12-18T15:54:30;26.58;;;11.45;;
35990;SDS011;22064;42.672;23.282;2022-12-18T15:57:15;22.77;;;9.48;;
35990;SDS011;22064;42.672;23.282;2022-12-18T15:59:50;22.30;;;10.20;;
35990;SDS011;22064;42.672;23.282;2022-12-18T16:02:18;26.48;;;10.70;;
35990;SDS011;22064;42.672;23.282;2022-12-18T16:04:44;24.80;;;10.60;;
35990;SDS011;22064;42.672;23.282;2022-12-18T16:07:10;26.42;;;11.40;;
35990;SDS011;22064;42.672;23.282;2022-12-18T16:09:37;26.60;;;11.27;;
35990;SDS011;22064;42.672;23.282;2022-12-18T16:12:04;25.90;;;10.63;;
35990;SDS011;22064;42.672;23.282;2022-12-18T16:14:30;26.45;;;11.27;;
35990;SDS011;22064;42.672;23.282;2022-12-18T16:17:00;25.45;;;10.68;;
35990;SDS011;22064;42.672;23.282;2022-12-18T16:19:28;26.45;;;10.90;;
35990;SDS011;22064;42.672;23.282;2022-12-18T16:21:55;27.08;;;11.40;;
35990;SDS011;22064;42.672;23.282;2022-12-18T16:24:26;28.48;;;11.68;;
35990;SDS011;22064;42.672;23.282;2022-12-18T16:26:53;30.48;;;11.55;;
35990;SDS011;22064;42.672;23.282;2022-12-18T16:29:20;28.70;;;11.80;;
35990;SDS011;22064;42.672;23.282;2022-12-18T16:31:49;31.20;;;12.30;;
35990;SDS011;22064;42.672;23.282;2022-12-18T16:34:19;29.60;;;11.98;;
35990;SDS011;22064;42.672;23.282;2022-12-18T16:36:50;26.58;;;12.02;;
35990;SDS011;22064;42.672;23.282;2022-12-18T16:39:16;30.00;;;12.43;;
35990;SDS011;22064;42.672;23.282;2022-12-18T16:41:42;31.25;;;12.55;;
35990;SDS011;22064;42.672;23.282;2022-12-18T16:44:08;31.60;;;12.88;;
35990;SDS011;22064;42.672;23.282;2022-12-18T16:46:35;27.25;;;11.82;;
35990;SDS011;22064;42.672;23.282;2022-12-18T16:49:01;29.70;;;11.73;;
35990;SDS011;22064;42.672;23.282;2022-12-18T16:51:27;32.42;;;12.38;;
35990;SDS011;22064;42.672;23.282;2022-12-18T16:53:55;30.25;;;12.57;;
35990;SDS011;22064;42.672;23.282;2022-12-18T16:56:21;31.00;;;13.10;;
35990;SDS011;22064;42.672;23.282;2022-12-18T16:58:54;30.92;;;12.45;;
35990;SDS011;22064;42.672;23.282;2022-12-18T17:01:22;30.55;;;13.32;;
35990;SDS011;22064;42.672;23.282;2022-12-18T17:03:55;31.45;;;12.90;;
35990;SDS011;22064;42.672;23.282;2022-12-18T17:06:25;29.83;;;12.15;;
35990;SDS011;22064;42.672;23.282;2022-12-18T17:09:00;28.17;;;11.32;;